sensor_id;sensor_type;location;lat;lon;timestamp;P1;durP1;ratioP1;P2;durP2;ratioP2
7239;SDS011;3661;53.288;10.458;2023-12-14T00:02:13;703.90;;;661.25;;
7239;SDS011;3661;53.288;10.458;2023-12-14T00:04:46;696.50;;;653.88;;
7239;SDS011;3661;53.288;10.458;2023-12-14T00:07:18;715.60;;;672.63;;
7239;SDS011;3661;53.288;10.458;2023-12-14T00:09:50;714.97;;;671.50;;
7239;SDS011;3661;53.288;10.458;2023-12-14T00:12:24;709.55;;;666.33;;
7239;SDS011;3661;53.288;10.458;2023-12-14T00:14:56;701.78;;;658.60;;
7239;SDS011;3661;53.288;10.458;2023-12-14T00:17:28;704.42;;;659.28;;
7239;SDS011;3661;53.288;10.458;2023-12-14T00:20:00;700.73;;;657.60;;
7239;SDS011;3661;53.288;10.458;2023-12-14T00:22:33;700.60;;;657.23;;
7239;SDS011;3661;53.288;10.458;2023-12-14T00:25:05;711.17;;;666.22;;
7239;SDS011;3661;53.288;10.458;2023-12-14T00:27:38;716.70;;;672.33;;
7239;SDS011;3661;53.288;10.458;2023-12-14T00:30:11;717.35;;;672.70;;
7239;SDS011;3661;53.288;10.458;2023-12-14T00:32:43;711.97;;;667.97;;
7239;SDS011;3661;53.288;10.458;2023-12-14T00:35:15;711.55;;;667.45;;
7239;SDS011;3661;53.288;10.458;2023-12-14T00:37:47;715.45;;;671.95;;
7239;SDS011;3661;53.288;10.458;2023-12-14T00:40:19;707.10;;;663.45;;
7239;SDS011;3661;53.288;10.458;2023-12-14T00:42:53;711.00;;;668.07;;
7239;SDS011;3661;53.288;10.458;2023-12-14T00:45:27;711.83;;;667.78;;
7239;SDS011;3661;53.288;10.458;2023-12-14T00:47:59;707.35;;;663.63;;
7239;SDS011;3661;53.288;10.458;2023-12-14T00:50:31;698.05;;;655.60;;
7239;SDS011;3661;53.288;10.458;2023-12-14T00:53:03;713.90;;;671.47;;
7239;SDS011;3661;53.288;10.458;2023-12-14T00:55:35;715.47;;;672.30;;
7239;SDS011;3661;53.288;10.458;2023-12-14T00:58:09;712.22;;;668.63;;
7239;SDS011;3661;53.288;10.458;2023-12-14T01:00:43;698.30;;;655.75;;
7239;SDS011;3661;53.288;10.458;2023-12-14T01:03:15;701.03;;;658.15;;
7239;SDS011;3661;53.288;10.458;2023-12-14T01:05:47;701.50;;;658.72;;
7239;SDS011;3661;53.288;10.458;2023-12-14T01:08:22;706.58;;;662.53;;
7239;SDS011;3661;53.288;10.458;2023-12-14T01:10:54;701.27;;;658.57;;
7239;SDS011;3661;53.288;10.458;2023-12-14T01:13:27;713.35;;;668.90;;
7239;SDS011;3661;53.288;10.458;2023-12-14T01:15:59;688.28;;;645.30;;
7239;SDS011;3661;53.288;10.458;2023-12-14T01:18:32;719.30;;;675.92;;
7239;SDS011;3661;53.288;10.458;2023-12-14T01:21:04;710.78;;;667.33;;
7239;SDS011;3661;53.288;10.458;2023-12-14T01:23:37;696.80;;;653.33;;
7239;SDS011;3661;53.288;10.458;2023-12-14T01:26:09;707.95;;;664.40;;
7239;SDS011;3661;53.288;10.458;2023-12-14T01:28:43;723.40;;;680.05;;
7239;SDS011;3661;53.288;10.458;2023-12-14T01:31:15;714.33;;;670.53;;
7239;SDS011;3661;53.288;10.458;2023-12-14T01:33:47;711.45;;;667.88;;
7239;SDS011;3661;53.288;10.458;2023-12-14T01:36:19;702.43;;;657.77;;
7239;SDS011;3661;53.288;10.458;2023-12-14T01:38:52;704.60;;;660.75;;
7239;SDS011;3661;53.288;10.458;2023-12-14T01:41:25;690.05;;;647.10;;
7239;SDS011;3661;53.288;10.458;2023-12-14T01:44:01;692.75;;;648.65;;
7239;SDS011;3661;53.288;10.458;2023-12-14T01:46:34;712.25;;;667.67;;
7239;SDS011;3661;53.288;10.458;2023-12-14T01:49:06;682.25;;;639.35;;
7239;SDS011;3661;53.288;10.458;2023-12-14T01:51:38;705.70;;;662.03;;
7239;SDS011;3661;53.288;10.458;2023-12-14T01:54:10;692.60;;;649.08;;
7239;SDS011;3661;53.288;10.458;2023-12-14T01:56:42;695.80;;;651.70;;
7239;SDS011;3661;53.288;10.458;2023-12-14T01:59:16;702.15;;;658.50;;
7239;SDS011;3661;53.288;10.458;2023-12-14T02:01:52;694.60;;;649.90;;
7239;SDS011;3661;53.288;10.458;2023-12-14T02:04:26;702.85;;;659.58;;
7239;SDS011;3661;53.288;10.458;2023-12-14T02:06:58;704.17;;;660.05;;
7239;SDS011;3661;53.288;10.458;2023-12-14T02:09:30;690.33;;;647.75;;
7239;SDS011;3661;53.288;10.458;2023-12-14T02:12:03;703.72;;;660.97;;
7239;SDS011;3661;53.288;10.458;2023-12-14T02:14:37;705.87;;;661.77;;
7239;SDS011;3661;53.288;10.458;2023-12-14T02:17:09;708.30;;;664.97;;
7239;SDS011;3661;53.288;10.458;2023-12-14T02:19:41;699.50;;;656.85;;
7239;SDS011;3661;53.288;10.458;2023-12-14T02:22:13;689.88;;;646.65;;
7239;SDS011;3661;53.288;10.458;2023-12-14T02:24:49;698.72;;;655.85;;
7239;SDS011;3661;53.288;10.458;2023-12-14T02:27:22;719.13;;;675.65;;
7239;SDS011;3661;53.288;10.458;2023-12-14T02:29:54;703.85;;;660.13;;
7239;SDS011;3661;53.288;10.458;2023-12-14T02:32:26;687.93;;;644.30;;
7239;SDS011;3661;53.288;10.458;2023-12-14T02:34:58;695.97;;;652.05;;
7239;SDS011;3661;53.288;10.458;2023-12-14T02:37:30;704.75;;;661.00;;
7239;SDS011;3661;53.288;10.458;2023-12-14T02:40:06;708.15;;;664.90;;
7239;SDS011;3661;53.288;10.458;2023-12-14T02:42:39;706.23;;;663.17;;
7239;SDS011;3661;53.288;10.458;2023-12-14T02:45:11;706.05;;;661.67;;
7239;SDS011;3661;53.288;10.458;2023-12-14T02:47:44;703.22;;;658.65;;
7239;SDS011;3661;53.288;10.458;2023-12-14T02:50:17;701.05;;;657.08;;
7239;SDS011;3661;53.288;10.458;2023-12-14T02:52:50;699.03;;;654.97;;
7239;SDS011;3661;53.288;10.458;2023-12-14T02:55:23;702.20;;;658.58;;
7239;SDS011;3661;53.288;10.458;2023-12-14T02:57:57;704.80;;;661.50;;
7239;SDS011;3661;53.288;10.458;2023-12-14T03:00:29;695.33;;;652.33;;
7239;SDS011;3661;53.288;10.458;2023-12-14T03:03:01;716.67;;;672.83;;
7239;SDS011;3661;53.288;10.458;2023-12-14T03:05:33;708.58;;;664.38;;
7239;SDS011;3661;53.288;10.458;2023-12-14T03:08:05;701.60;;;656.88;;
7239;SDS011;3661;53.288;10.458;2023-12-14T03:10:39;697.63;;;653.80;;
7239;SDS011;3661;53.288;10.458;2023-12-14T03:13:12;712.83;;;668.60;;
7239;SDS011;3661;53.288;10.458;2023-12-14T03:15:44;705.70;;;662.37;;
7239;SDS011;3661;53.288;10.458;2023-12-14T03:18:16;703.58;;;659.78;;
7239;SDS011;3661;53.288;10.458;2023-12-14T03:20:48;699.77;;;656.23;;
7239;SDS011;3661;53.288;10.458;2023-12-14T03:23:21;704.25;;;661.33;;
7239;SDS011;3661;53.288;10.458;2023-12-14T03:25:54;704.23;;;661.23;;
7239;SDS011;3661;53.288;10.458;2023-12-14T03:28:26;700.53;;;656.70;;
7239;SDS011;3661;53.288;10.458;2023-12-14T03:30:59;711.53;;;667.42;;
7239;SDS011;3661;53.288;10.458;2023-12-14T03:33:31;702.90;;;659.35;;
7239;SDS011;3661;53.288;10.458;2023-12-14T03:36:04;707.03;;;662.23;;
7239;SDS011;3661;53.288;10.458;2023-12-14T03:38:36;713.58;;;669.67;;
7239;SDS011;3661;53.288;10.458;2023-12-14T03:41:10;694.42;;;651.22;;
7239;SDS011;3661;53.288;10.458;2023-12-14T03:43:42;711.00;;;667.70;;
7239;SDS011;3661;53.288;10.458;2023-12-14T03:46:14;690.30;;;647.30;;
7239;SDS011;3661;53.288;10.458;2023-12-14T03:48:46;714.72;;;671.25;;
7239;SDS011;3661;53.288;10.458;2023-12-14T03:51:18;710.73;;;667.43;;
7239;SDS011;3661;53.288;10.458;2023-12-14T03:53:51;694.50;;;651.25;;
7239;SDS011;3661;53.288;10.458;2023-12-14T03:56:24;710.58;;;666.47;;
7239;SDS011;3661;53.288;10.458;2023-12-14T03:58:56;727.90;;;683.70;;
7239;SDS011;3661;53.288;10.458;2023-12-14T04:01:28;712.28;;;668.65;;
7239;SDS011;3661;53.288;10.458;2023-12-14T04:04:00;699.60;;;656.33;;
7239;SDS011;3661;53.288;10.458;2023-12-14T04:06:33;709.22;;;665.67;;
7239;SDS011;3661;53.288;10.458;2023-12-14T04:09:05;701.08;;;657.92;;
7239;SDS011;3661;53.288;10.458;2023-12-14T04:11:38;718.42;;;674.40;;
7239;SDS011;3661;53.288;10.458;2023-12-14T04:14:10;708.53;;;664.17;;
7239;SDS011;3661;53.288;10.458;2023-12-14T04:16:42;700.15;;;655.08;;
7239;SDS011;3661;53.288;10.458;2023-12-14T04:19:14;706.35;;;662.80;;
7239;SDS011;3661;53.288;10.458;2023-12-14T04:21:46;717.42;;;672.55;;
7239;SDS011;3661;53.288;10.458;2023-12-14T04:24:19;710.97;;;667.33;;
7239;SDS011;3661;53.288;10.458;2023-12-14T04:26:53;710.10;;;665.28;;
7239;SDS011;3661;53.288;10.458;2023-12-14T04:29:26;696.43;;;652.03;;
7239;SDS011;3661;53.288;10.458;2023-12-14T04:31:58;713.08;;;668.13;;
7239;SDS011;3661;53.288;10.458;2023-12-14T04:34:30;694.95;;;650.50;;
7239;SDS011;3661;53.288;10.458;2023-12-14T04:37:03;703.10;;;657.40;;
7239;SDS011;3661;53.288;10.458;2023-12-14T04:39:35;716.97;;;671.25;;
7239;SDS011;3661;53.288;10.458;2023-12-14T04:42:08;698.38;;;654.42;;
7239;SDS011;3661;53.288;10.458;2023-12-14T04:44:43;710.73;;;665.73;;
7239;SDS011;3661;53.288;10.458;2023-12-14T04:47:15;714.50;;;670.53;;
7239;SDS011;3661;53.288;10.458;2023-12-14T04:49:47;708.30;;;662.95;;
7239;SDS011;3661;53.288;10.458;2023-12-14T04:52:19;706.80;;;662.20;;
7239;SDS011;3661;53.288;10.458;2023-12-14T04:54:51;716.65;;;672.55;;
7239;SDS011;3661;53.288;10.458;2023-12-14T04:57:24;709.83;;;666.03;;
7239;SDS011;3661;53.288;10.458;2023-12-14T04:59:56;715.63;;;671.97;;
7239;SDS011;3661;53.288;10.458;2023-12-14T05:02:30;712.92;;;668.75;;
7239;SDS011;3661;53.288;10.458;2023-12-14T05:05:03;702.25;;;658.58;;
7239;SDS011;3661;53.288;10.458;2023-12-14T05:07:37;706.85;;;662.75;;
7239;SDS011;3661;53.288;10.458;2023-12-14T05:10:09;714.15;;;669.97;;
7239;SDS011;3661;53.288;10.458;2023-12-14T05:12:43;707.25;;;662.60;;
7239;SDS011;3661;53.288;10.458;2023-12-14T05:15:15;711.60;;;667.07;;
7239;SDS011;3661;53.288;10.458;2023-12-14T05:17:47;702.75;;;658.58;;
7239;SDS011;3661;53.288;10.458;2023-12-14T05:20:19;709.45;;;665.13;;
7239;SDS011;3661;53.288;10.458;2023-12-14T05:22:51;710.85;;;665.47;;
7239;SDS011;3661;53.288;10.458;2023-12-14T05:25:23;707.78;;;662.63;;
7239;SDS011;3661;53.288;10.458;2023-12-14T05:27:56;706.95;;;662.97;;
7239;SDS011;3661;53.288;10.458;2023-12-14T05:30:28;714.97;;;669.97;;
7239;SDS011;3661;53.288;10.458;2023-12-14T05:33:01;728.50;;;684.30;;
7239;SDS011;3661;53.288;10.458;2023-12-14T05:35:33;692.78;;;648.42;;
7239;SDS011;3661;53.288;10.458;2023-12-14T05:38:07;705.75;;;660.67;;
7239;SDS011;3661;53.288;10.458;2023-12-14T05:40:39;718.53;;;673.42;;
7239;SDS011;3661;53.288;10.458;2023-12-14T05:43:13;697.33;;;653.30;;
7239;SDS011;3661;53.288;10.458;2023-12-14T05:45:45;706.72;;;661.55;;
7239;SDS011;3661;53.288;10.458;2023-12-14T05:48:17;712.85;;;667.63;;
7239;SDS011;3661;53.288;10.458;2023-12-14T05:50:51;705.95;;;661.30;;
7239;SDS011;3661;53.288;10.458;2023-12-14T05:53:24;703.58;;;658.85;;
7239;SDS011;3661;53.288;10.458;2023-12-14T05:55:56;705.85;;;660.78;;
7239;SDS011;3661;53.288;10.458;2023-12-14T05:58:30;712.35;;;668.30;;
7239;SDS011;3661;53.288;10.458;2023-12-14T06:01:02;705.40;;;660.35;;
7239;SDS011;3661;53.288;10.458;2023-12-14T06:03:35;722.03;;;676.92;;
7239;SDS011;3661;53.288;10.458;2023-12-14T06:06:07;717.75;;;672.10;;
7239;SDS011;3661;53.288;10.458;2023-12-14T06:08:40;720.90;;;676.58;;
7239;SDS011;3661;53.288;10.458;2023-12-14T06:11:12;691.13;;;646.47;;
7239;SDS011;3661;53.288;10.458;2023-12-14T06:13:46;691.47;;;647.08;;
7239;SDS011;3661;53.288;10.458;2023-12-14T06:16:18;695.65;;;650.85;;
7239;SDS011;3661;53.288;10.458;2023-12-14T06:18:50;714.72;;;669.35;;
7239;SDS011;3661;53.288;10.458;2023-12-14T06:21:23;723.17;;;677.70;;
7239;SDS011;3661;53.288;10.458;2023-12-14T06:23:58;716.70;;;670.80;;
7239;SDS011;3661;53.288;10.458;2023-12-14T06:26:30;727.22;;;682.53;;
7239;SDS011;3661;53.288;10.458;2023-12-14T06:29:03;701.87;;;656.37;;
7239;SDS011;3661;53.288;10.458;2023-12-14T06:31:36;699.80;;;654.50;;
7239;SDS011;3661;53.288;10.458;2023-12-14T06:34:11;696.80;;;650.67;;
7239;SDS011;3661;53.288;10.458;2023-12-14T06:36:43;710.42;;;665.08;;
7239;SDS011;3661;53.288;10.458;2023-12-14T06:39:16;696.03;;;650.80;;
7239;SDS011;3661;53.288;10.458;2023-12-14T06:41:48;701.70;;;657.33;;
7239;SDS011;3661;53.288;10.458;2023-12-14T06:44:24;724.22;;;677.80;;
7239;SDS011;3661;53.288;10.458;2023-12-14T06:46:57;722.80;;;676.55;;
7239;SDS011;3661;53.288;10.458;2023-12-14T06:49:30;696.67;;;650.70;;
7239;SDS011;3661;53.288;10.458;2023-12-14T06:52:02;720.90;;;675.27;;
7239;SDS011;3661;53.288;10.458;2023-12-14T06:54:34;692.60;;;647.20;;
7239;SDS011;3661;53.288;10.458;2023-12-14T06:57:06;703.10;;;657.50;;
7239;SDS011;3661;53.288;10.458;2023-12-14T06:59:40;713.85;;;668.40;;
7239;SDS011;3661;53.288;10.458;2023-12-14T07:02:12;704.20;;;658.42;;
7239;SDS011;3661;53.288;10.458;2023-12-14T07:04:44;699.55;;;653.65;;
7239;SDS011;3661;53.288;10.458;2023-12-14T07:07:17;703.17;;;658.28;;
7239;SDS011;3661;53.288;10.458;2023-12-14T07:09:51;727.20;;;681.63;;
7239;SDS011;3661;53.288;10.458;2023-12-14T07:12:23;712.40;;;668.17;;
7239;SDS011;3661;53.288;10.458;2023-12-14T07:14:57;713.13;;;668.43;;
7239;SDS011;3661;53.288;10.458;2023-12-14T07:17:29;707.75;;;662.80;;
7239;SDS011;3661;53.288;10.458;2023-12-14T07:20:01;701.17;;;655.73;;
7239;SDS011;3661;53.288;10.458;2023-12-14T07:22:33;711.65;;;666.42;;
7239;SDS011;3661;53.288;10.458;2023-12-14T07:25:06;705.17;;;659.70;;
7239;SDS011;3661;53.288;10.458;2023-12-14T07:27:38;711.60;;;665.88;;
7239;SDS011;3661;53.288;10.458;2023-12-14T07:30:12;704.08;;;658.75;;
7239;SDS011;3661;53.288;10.458;2023-12-14T07:32:44;707.58;;;661.38;;
7239;SDS011;3661;53.288;10.458;2023-12-14T07:35:16;722.08;;;676.38;;
7239;SDS011;3661;53.288;10.458;2023-12-14T07:37:48;704.17;;;658.42;;
7239;SDS011;3661;53.288;10.458;2023-12-14T07:40:20;708.03;;;663.37;;
7239;SDS011;3661;53.288;10.458;2023-12-14T07:42:52;721.97;;;677.22;;
7239;SDS011;3661;53.288;10.458;2023-12-14T07:45:25;716.85;;;672.40;;
7239;SDS011;3661;53.288;10.458;2023-12-14T07:47:57;703.28;;;658.25;;
7239;SDS011;3661;53.288;10.458;2023-12-14T07:50:34;726.22;;;680.30;;
7239;SDS011;3661;53.288;10.458;2023-12-14T07:53:06;701.90;;;656.47;;
7239;SDS011;3661;53.288;10.458;2023-12-14T07:55:38;715.20;;;670.17;;
7239;SDS011;3661;53.288;10.458;2023-12-14T07:58:10;700.23;;;655.33;;
7239;SDS011;3661;53.288;10.458;2023-12-14T08:00:44;715.40;;;671.33;;
7239;SDS011;3661;53.288;10.458;2023-12-14T08:03:16;697.38;;;653.63;;
7239;SDS011;3661;53.288;10.458;2023-12-14T08:05:48;700.38;;;656.25;;
7239;SDS011;3661;53.288;10.458;2023-12-14T08:08:23;727.28;;;683.05;;
7239;SDS011;3661;53.288;10.458;2023-12-14T08:10:55;713.70;;;669.60;;
7239;SDS011;3661;53.288;10.458;2023-12-14T08:13:27;706.78;;;662.45;;
7239;SDS011;3661;53.288;10.458;2023-12-14T08:16:01;722.80;;;677.05;;
7239;SDS011;3661;53.288;10.458;2023-12-14T08:18:33;714.17;;;670.13;;
7239;SDS011;3661;53.288;10.458;2023-12-14T08:21:06;715.53;;;671.40;;
7239;SDS011;3661;53.288;10.458;2023-12-14T08:23:38;723.63;;;679.20;;
7239;SDS011;3661;53.288;10.458;2023-12-14T08:26:10;696.22;;;652.60;;
7239;SDS011;3661;53.288;10.458;2023-12-14T08:28:43;700.90;;;656.75;;
7239;SDS011;3661;53.288;10.458;2023-12-14T08:31:16;711.55;;;667.38;;
7239;SDS011;3661;53.288;10.458;2023-12-14T08:33:48;718.08;;;673.13;;
7239;SDS011;3661;53.288;10.458;2023-12-14T08:36:22;720.53;;;675.30;;
7239;SDS011;3661;53.288;10.458;2023-12-14T08:38:54;712.92;;;669.17;;
7239;SDS011;3661;53.288;10.458;2023-12-14T08:41:26;714.03;;;669.63;;
7239;SDS011;3661;53.288;10.458;2023-12-14T08:43:58;731.65;;;686.13;;
7239;SDS011;3661;53.288;10.458;2023-12-14T08:46:39;719.03;;;674.75;;
7239;SDS011;3661;53.288;10.458;2023-12-14T08:49:14;725.65;;;680.63;;
7239;SDS011;3661;53.288;10.458;2023-12-14T08:51:47;721.67;;;676.08;;
7239;SDS011;3661;53.288;10.458;2023-12-14T08:54:19;720.27;;;675.40;;
7239;SDS011;3661;53.288;10.458;2023-12-14T08:56:51;731.88;;;686.80;;
7239;SDS011;3661;53.288;10.458;2023-12-14T08:59:23;703.00;;;657.85;;
7239;SDS011;3661;53.288;10.458;2023-12-14T09:01:56;710.50;;;664.97;;
7239;SDS011;3661;53.288;10.458;2023-12-14T09:04:28;700.65;;;655.05;;
7239;SDS011;3661;53.288;10.458;2023-12-14T09:07:00;715.13;;;669.60;;
7239;SDS011;3661;53.288;10.458;2023-12-14T09:09:34;723.65;;;678.40;;
7239;SDS011;3661;53.288;10.458;2023-12-14T09:12:06;700.30;;;655.80;;
7239;SDS011;3661;53.288;10.458;2023-12-14T09:14:38;724.33;;;679.40;;
7239;SDS011;3661;53.288;10.458;2023-12-14T09:17:11;714.90;;;670.00;;
7239;SDS011;3661;53.288;10.458;2023-12-14T09:19:43;703.47;;;658.33;;
7239;SDS011;3661;53.288;10.458;2023-12-14T09:22:15;723.55;;;678.85;;
7239;SDS011;3661;53.288;10.458;2023-12-14T09:24:47;711.67;;;666.60;;
7239;SDS011;3661;53.288;10.458;2023-12-14T09:27:20;717.65;;;672.08;;
7239;SDS011;3661;53.288;10.458;2023-12-14T09:29:52;726.28;;;680.97;;
7239;SDS011;3661;53.288;10.458;2023-12-14T09:32:25;703.40;;;657.88;;
7239;SDS011;3661;53.288;10.458;2023-12-14T09:34:57;713.83;;;667.60;;
7239;SDS011;3661;53.288;10.458;2023-12-14T09:37:29;736.15;;;689.90;;
7239;SDS011;3661;53.288;10.458;2023-12-14T09:40:02;712.40;;;667.33;;
7239;SDS011;3661;53.288;10.458;2023-12-14T09:42:36;714.70;;;668.97;;
7239;SDS011;3661;53.288;10.458;2023-12-14T09:45:10;738.60;;;691.80;;
7239;SDS011;3661;53.288;10.458;2023-12-14T09:47:44;719.90;;;673.33;;
7239;SDS011;3661;53.288;10.458;2023-12-14T09:50:17;720.80;;;675.30;;
7239;SDS011;3661;53.288;10.458;2023-12-14T09:52:50;745.55;;;699.70;;
7239;SDS011;3661;53.288;10.458;2023-12-14T09:55:22;719.42;;;673.17;;
7239;SDS011;3661;53.288;10.458;2023-12-14T09:57:54;729.47;;;683.20;;
7239;SDS011;3661;53.288;10.458;2023-12-14T10:00:33;724.28;;;678.20;;
7239;SDS011;3661;53.288;10.458;2023-12-14T10:03:20;750.73;;;704.43;;
7239;SDS011;3661;53.288;10.458;2023-12-14T10:05:54;716.72;;;670.70;;
7239;SDS011;3661;53.288;10.458;2023-12-14T10:08:27;730.15;;;683.67;;
7239;SDS011;3661;53.288;10.458;2023-12-14T10:10:59;738.97;;;692.97;;
7239;SDS011;3661;53.288;10.458;2023-12-14T10:13:37;717.35;;;671.65;;
7239;SDS011;3661;53.288;10.458;2023-12-14T10:16:10;734.17;;;687.70;;
7239;SDS011;3661;53.288;10.458;2023-12-14T10:18:43;734.00;;;688.20;;
7239;SDS011;3661;53.288;10.458;2023-12-14T10:21:15;734.80;;;688.90;;
7239;SDS011;3661;53.288;10.458;2023-12-14T10:23:48;734.10;;;688.28;;
7239;SDS011;3661;53.288;10.458;2023-12-14T10:26:21;751.28;;;704.50;;
7239;SDS011;3661;53.288;10.458;2023-12-14T10:28:54;738.85;;;692.25;;
7239;SDS011;3661;53.288;10.458;2023-12-14T10:31:26;729.97;;;682.88;;
7239;SDS011;3661;53.288;10.458;2023-12-14T10:34:01;745.33;;;698.65;;
7239;SDS011;3661;53.288;10.458;2023-12-14T10:36:33;738.70;;;691.28;;
7239;SDS011;3661;53.288;10.458;2023-12-14T10:39:14;743.17;;;696.13;;
7239;SDS011;3661;53.288;10.458;2023-12-14T10:41:48;746.58;;;699.83;;
7239;SDS011;3661;53.288;10.458;2023-12-14T10:44:26;745.88;;;698.72;;
7239;SDS011;3661;53.288;10.458;2023-12-14T10:46:59;747.15;;;700.75;;
7239;SDS011;3661;53.288;10.458;2023-12-14T10:49:33;728.65;;;681.75;;
7239;SDS011;3661;53.288;10.458;2023-12-14T10:52:07;765.08;;;717.65;;
7239;SDS011;3661;53.288;10.458;2023-12-14T10:54:39;743.00;;;697.03;;
7239;SDS011;3661;53.288;10.458;2023-12-14T10:57:12;757.92;;;711.47;;
7239;SDS011;3661;53.288;10.458;2023-12-14T10:59:45;744.17;;;697.75;;
7239;SDS011;3661;53.288;10.458;2023-12-14T11:02:20;732.38;;;686.08;;
7239;SDS011;3661;53.288;10.458;2023-12-14T11:04:56;738.15;;;691.92;;
7239;SDS011;3661;53.288;10.458;2023-12-14T11:10:26;759.45;;;712.05;;
7239;SDS011;3661;53.288;10.458;2023-12-14T11:13:00;753.50;;;707.20;;
7239;SDS011;3661;53.288;10.458;2023-12-14T11:15:34;757.33;;;710.05;;
7239;SDS011;3661;53.288;10.458;2023-12-14T11:18:22;758.57;;;711.73;;
7239;SDS011;3661;53.288;10.458;2023-12-14T11:21:00;768.72;;;722.35;;
7239;SDS011;3661;53.288;10.458;2023-12-14T11:23:33;757.13;;;710.50;;
7239;SDS011;3661;53.288;10.458;2023-12-14T11:26:09;760.55;;;713.22;;
7239;SDS011;3661;53.288;10.458;2023-12-14T11:28:45;772.50;;;725.80;;
7239;SDS011;3661;53.288;10.458;2023-12-14T11:31:17;764.47;;;717.28;;
7239;SDS011;3661;53.288;10.458;2023-12-14T11:33:50;767.40;;;721.10;;
7239;SDS011;3661;53.288;10.458;2023-12-14T11:36:25;762.10;;;715.28;;
7239;SDS011;3661;53.288;10.458;2023-12-14T11:38:57;760.87;;;714.73;;
7239;SDS011;3661;53.288;10.458;2023-12-14T11:41:29;771.67;;;725.45;;
7239;SDS011;3661;53.288;10.458;2023-12-14T11:44:04;755.33;;;709.47;;
7239;SDS011;3661;53.288;10.458;2023-12-14T11:46:37;775.55;;;728.95;;
7239;SDS011;3661;53.288;10.458;2023-12-14T11:49:11;774.05;;;726.45;;
7239;SDS011;3661;53.288;10.458;2023-12-14T11:51:46;767.40;;;720.10;;
7239;SDS011;3661;53.288;10.458;2023-12-14T11:54:18;778.38;;;731.78;;
7239;SDS011;3661;53.288;10.458;2023-12-14T11:56:50;767.55;;;721.50;;
7239;SDS011;3661;53.288;10.458;2023-12-14T11:59:23;769.88;;;723.78;;
7239;SDS011;3661;53.288;10.458;2023-12-14T12:01:58;764.70;;;717.40;;
7239;SDS011;3661;53.288;10.458;2023-12-14T12:04:32;754.87;;;708.47;;
7239;SDS011;3661;53.288;10.458;2023-12-14T12:07:05;763.63;;;716.83;;
7239;SDS011;3661;53.288;10.458;2023-12-14T12:09:40;765.50;;;718.28;;
7239;SDS011;3661;53.288;10.458;2023-12-14T12:12:13;775.97;;;728.78;;
7239;SDS011;3661;53.288;10.458;2023-12-14T12:14:45;762.58;;;716.30;;
7239;SDS011;3661;53.288;10.458;2023-12-14T12:17:19;780.27;;;733.27;;
7239;SDS011;3661;53.288;10.458;2023-12-14T12:19:51;764.05;;;716.88;;
7239;SDS011;3661;53.288;10.458;2023-12-14T12:22:31;761.72;;;713.97;;
7239;SDS011;3661;53.288;10.458;2023-12-14T12:25:03;769.45;;;722.60;;
7239;SDS011;3661;53.288;10.458;2023-12-14T12:27:36;766.20;;;719.72;;
7239;SDS011;3661;53.288;10.458;2023-12-14T12:30:09;782.90;;;734.88;;
7239;SDS011;3661;53.288;10.458;2023-12-14T12:32:41;749.92;;;702.75;;
7239;SDS011;3661;53.288;10.458;2023-12-14T12:35:14;762.58;;;715.97;;
7239;SDS011;3661;53.288;10.458;2023-12-14T12:37:47;774.22;;;727.08;;
7239;SDS011;3661;53.288;10.458;2023-12-14T12:40:23;777.38;;;730.20;;
7239;SDS011;3661;53.288;10.458;2023-12-14T12:42:57;768.22;;;720.63;;
7239;SDS011;3661;53.288;10.458;2023-12-14T12:45:29;782.83;;;735.35;;
7239;SDS011;3661;53.288;10.458;2023-12-14T12:48:02;768.08;;;720.83;;
7239;SDS011;3661;53.288;10.458;2023-12-14T12:50:37;769.88;;;722.45;;
7239;SDS011;3661;53.288;10.458;2023-12-14T12:53:10;769.67;;;723.00;;
7239;SDS011;3661;53.288;10.458;2023-12-14T12:55:42;778.05;;;731.55;;
7239;SDS011;3661;53.288;10.458;2023-12-14T12:58:14;756.38;;;708.83;;
7239;SDS011;3661;53.288;10.458;2023-12-14T13:00:46;778.50;;;731.83;;
7239;SDS011;3661;53.288;10.458;2023-12-14T13:03:18;769.05;;;722.05;;
7239;SDS011;3661;53.288;10.458;2023-12-14T13:05:54;767.83;;;720.42;;
7239;SDS011;3661;53.288;10.458;2023-12-14T13:08:28;772.08;;;725.47;;
7239;SDS011;3661;53.288;10.458;2023-12-14T13:11:01;769.55;;;721.95;;
7239;SDS011;3661;53.288;10.458;2023-12-14T13:13:33;766.83;;;720.03;;
7239;SDS011;3661;53.288;10.458;2023-12-14T13:16:05;751.60;;;704.70;;
7239;SDS011;3661;53.288;10.458;2023-12-14T13:18:37;776.85;;;729.67;;
7239;SDS011;3661;53.288;10.458;2023-12-14T13:21:09;763.00;;;716.20;;
7239;SDS011;3661;53.288;10.458;2023-12-14T13:23:43;772.63;;;725.25;;
7239;SDS011;3661;53.288;10.458;2023-12-14T13:26:15;757.30;;;710.80;;
7239;SDS011;3661;53.288;10.458;2023-12-14T13:28:47;758.45;;;711.92;;
7239;SDS011;3661;53.288;10.458;2023-12-14T13:31:20;784.47;;;737.03;;
7239;SDS011;3661;53.288;10.458;2023-12-14T13:33:52;756.33;;;710.17;;
7239;SDS011;3661;53.288;10.458;2023-12-14T13:36:24;761.67;;;714.90;;
7239;SDS011;3661;53.288;10.458;2023-12-14T13:38:58;764.57;;;717.20;;
7239;SDS011;3661;53.288;10.458;2023-12-14T13:41:29;768.83;;;721.83;;
7239;SDS011;3661;53.288;10.458;2023-12-14T13:44:04;756.80;;;710.33;;
7239;SDS011;3661;53.288;10.458;2023-12-14T13:46:36;758.92;;;712.20;;
7239;SDS011;3661;53.288;10.458;2023-12-14T13:49:11;769.40;;;723.05;;
7239;SDS011;3661;53.288;10.458;2023-12-14T13:51:43;759.53;;;712.67;;
7239;SDS011;3661;53.288;10.458;2023-12-14T13:54:17;757.38;;;710.22;;
7239;SDS011;3661;53.288;10.458;2023-12-14T13:56:49;750.85;;;704.40;;
7239;SDS011;3661;53.288;10.458;2023-12-14T13:59:22;756.10;;;709.38;;
7239;SDS011;3661;53.288;10.458;2023-12-14T14:01:54;755.92;;;709.35;;
7239;SDS011;3661;53.288;10.458;2023-12-14T14:04:29;768.95;;;723.22;;
7239;SDS011;3661;53.288;10.458;2023-12-14T14:07:01;763.30;;;715.80;;
7239;SDS011;3661;53.288;10.458;2023-12-14T14:09:34;759.75;;;712.72;;
7239;SDS011;3661;53.288;10.458;2023-12-14T14:12:07;755.25;;;708.85;;
7239;SDS011;3661;53.288;10.458;2023-12-14T14:14:39;746.35;;;700.38;;
7239;SDS011;3661;53.288;10.458;2023-12-14T14:17:11;764.95;;;717.40;;
7239;SDS011;3661;53.288;10.458;2023-12-14T14:19:43;759.33;;;713.10;;
7239;SDS011;3661;53.288;10.458;2023-12-14T14:22:18;754.05;;;707.47;;
7239;SDS011;3661;53.288;10.458;2023-12-14T14:24:52;767.60;;;721.10;;
7239;SDS011;3661;53.288;10.458;2023-12-14T14:27:24;765.58;;;718.75;;
7239;SDS011;3661;53.288;10.458;2023-12-14T14:29:59;755.23;;;709.07;;
7239;SDS011;3661;53.288;10.458;2023-12-14T14:32:32;749.88;;;703.92;;
7239;SDS011;3661;53.288;10.458;2023-12-14T14:35:07;741.63;;;696.13;;
7239;SDS011;3661;53.288;10.458;2023-12-14T14:37:39;758.35;;;711.78;;
7239;SDS011;3661;53.288;10.458;2023-12-14T14:40:16;741.58;;;695.35;;
7239;SDS011;3661;53.288;10.458;2023-12-14T14:42:48;730.92;;;684.45;;
7239;SDS011;3661;53.288;10.458;2023-12-14T14:45:20;762.92;;;716.63;;